sensor_id;sensor_type;location;lat;lon;timestamp;temperature;humidity
37870;DHT22;62531;53.326;-1.368;2022-09-09T00:06:48;23.20;55.70
37870;DHT22;62531;53.326;-1.368;2022-09-09T00:11:01;23.20;55.60
37870;DHT22;62531;53.326;-1.368;2022-09-09T00:15:12;23.20;55.60
37870;DHT22;62531;53.326;-1.368;2022-09-09T00:19:33;23.20;55.60
37870;DHT22;62531;53.326;-1.368;2022-09-09T00:23:39;23.10;55.50
37870;DHT22;62531;53.326;-1.368;2022-09-09T00:27:48;23.10;55.50
37870;DHT22;62531;53.326;-1.368;2022-09-09T00:31:51;23.10;55.50
37870;DHT22;62531;53.326;-1.368;2022-09-09T00:35:57;23.10;55.50
37870;DHT22;62531;53.326;-1.368;2022-09-09T00:40:01;23.10;55.50
37870;DHT22;62531;53.326;-1.368;2022-09-09T00:52:57;23.10;55.40
37870;DHT22;62531;53.326;-1.368;2022-09-09T00:57:26;23.10;55.40
37870;DHT22;62531;53.326;-1.368;2022-09-09T01:01:31;23.10;55.90
37870;DHT22;62531;53.326;-1.368;2022-09-09T01:09:42;23.00;55.80
37870;DHT22;62531;53.326;-1.368;2022-09-09T01:13:47;23.00;55.30
37870;DHT22;62531;53.326;-1.368;2022-09-09T01:22:10;23.00;55.30
37870;DHT22;62531;53.326;-1.368;2022-09-09T01:30:21;23.00;55.20
37870;DHT22;62531;53.326;-1.368;2022-09-09T01:34:25;23.00;55.20
37870;DHT22;62531;53.326;-1.368;2022-09-09T01:38:28;23.00;55.20
37870;DHT22;62531;53.326;-1.368;2022-09-09T01:42:30;22.90;55.10
37870;DHT22;62531;53.326;-1.368;2022-09-09T01:46:31;23.00;55.20
37870;DHT22;62531;53.326;-1.368;2022-09-09T01:50:32;22.90;55.10
37870;DHT22;62531;53.326;-1.368;2022-09-09T01:54:34;22.90;55.10
37870;DHT22;62531;53.326;-1.368;2022-09-09T02:03:25;22.90;55.10
37870;DHT22;62531;53.326;-1.368;2022-09-09T02:07:34;22.90;55.10
37870;DHT22;62531;53.326;-1.368;2022-09-09T02:11:36;22.90;55.10
37870;DHT22;62531;53.326;-1.368;2022-09-09T02:20:14;22.90;55.00
37870;DHT22;62531;53.326;-1.368;2022-09-09T02:24:16;22.90;55.00
37870;DHT22;62531;53.326;-1.368;2022-09-09T02:28:18;22.80;55.00
37870;DHT22;62531;53.326;-1.368;2022-09-09T02:32:23;22.90;55.00
37870;DHT22;62531;53.326;-1.368;2022-09-09T02:36:29;22.90;55.00
37870;DHT22;62531;53.326;-1.368;2022-09-09T02:40:31;22.80;55.00
37870;DHT22;62531;53.326;-1.368;2022-09-09T02:44:33;22.80;55.00
37870;DHT22;62531;53.326;-1.368;2022-09-09T03:01:15;22.80;54.90
37870;DHT22;62531;53.326;-1.368;2022-09-09T03:05:17;22.80;54.90
37870;DHT22;62531;53.326;-1.368;2022-09-09T03:09:18;22.80;54.90
37870;DHT22;62531;53.326;-1.368;2022-09-09T03:13:20;22.80;54.90
37870;DHT22;62531;53.326;-1.368;2022-09-09T03:17:21;22.70;54.90
37870;DHT22;62531;53.326;-1.368;2022-09-09T03:21:24;22.70;54.80
37870;DHT22;62531;53.326;-1.368;2022-09-09T03:25:25;22.70;54.80
37870;DHT22;62531;53.326;-1.368;2022-09-09T03:29:28;22.80;54.90
37870;DHT22;62531;53.326;-1.368;2022-09-09T03:33:30;22.70;54.80
37870;DHT22;62531;53.326;-1.368;2022-09-09T03:37:32;22.70;54.80
37870;DHT22;62531;53.326;-1.368;2022-09-09T03:41:33;22.70;54.80
37870;DHT22;62531;53.326;-1.368;2022-09-09T03:45:35;22.70;54.80
37870;DHT22;62531;53.326;-1.368;2022-09-09T03:49:36;22.70;54.80
37870;DHT22;62531;53.326;-1.368;2022-09-09T03:53:37;22.70;54.80
37870;DHT22;62531;53.326;-1.368;2022-09-09T03:57:38;22.70;54.80
37870;DHT22;62531;53.326;-1.368;2022-09-09T04:01:39;22.70;54.80
37870;DHT22;62531;53.326;-1.368;2022-09-09T04:05:41;22.70;54.80
37870;DHT22;62531;53.326;-1.368;2022-09-09T04:09:43;22.70;54.80
37870;DHT22;62531;53.326;-1.368;2022-09-09T04:13:44;22.70;54.80
37870;DHT22;62531;53.326;-1.368;2022-09-09T04:17:46;22.70;54.80
37870;DHT22;62531;53.326;-1.368;2022-09-09T04:21:48;22.70;54.80
37870;DHT22;62531;53.326;-1.368;2022-09-09T04:25:53;22.70;54.80
37870;DHT22;62531;53.326;-1.368;2022-09-09T04:29:55;22.60;54.70
37870;DHT22;62531;53.326;-1.368;2022-09-09T04:33:57;22.60;54.70
37870;DHT22;62531;53.326;-1.368;2022-09-09T04:37:58;22.60;54.70
37870;DHT22;62531;53.326;-1.368;2022-09-09T04:41:59;22.60;54.70
37870;DHT22;62531;53.326;-1.368;2022-09-09T04:46:01;22.60;54.70
37870;DHT22;62531;53.326;-1.368;2022-09-09T04:50:03;22.60;54.70
37870;DHT22;62531;53.326;-1.368;2022-09-09T04:54:04;22.60;54.70
37870;DHT22;62531;53.326;-1.368;2022-09-09T04:58:08;22.60;54.60
37870;DHT22;62531;53.326;-1.368;2022-09-09T05:02:09;22.60;54.70
37870;DHT22;62531;53.326;-1.368;2022-09-09T05:06:12;22.60;54.60
37870;DHT22;62531;53.326;-1.368;2022-09-09T05:10:14;22.60;54.60
37870;DHT22;62531;53.326;-1.368;2022-09-09T05:14:17;22.60;54.60
37870;DHT22;62531;53.326;-1.368;2022-09-09T05:18:18;22.60;54.60
37870;DHT22;62531;53.326;-1.368;2022-09-09T05:22:20;22.60;54.60
37870;DHT22;62531;53.326;-1.368;2022-09-09T05:26:23;22.60;54.60
37870;DHT22;62531;53.326;-1.368;2022-09-09T05:30:25;22.50;54.60
37870;DHT22;62531;53.326;-1.368;2022-09-09T05:34:27;22.60;54.60
37870;DHT22;62531;53.326;-1.368;2022-09-09T05:38:29;22.60;54.60
37870;DHT22;62531;53.326;-1.368;2022-09-09T05:42:31;22.60;54.60
37870;DHT22;62531;53.326;-1.368;2022-09-09T05:46:33;22.50;54.60
37870;DHT22;62531;53.326;-1.368;2022-09-09T05:50:34;22.50;54.50
37870;DHT22;62531;53.326;-1.368;2022-09-09T05:54:35;22.60;54.60
37870;DHT22;62531;53.326;-1.368;2022-09-09T05:58:38;22.50;54.50
37870;DHT22;62531;53.326;-1.368;2022-09-09T06:02:40;22.50;54.50
37870;DHT22;62531;53.326;-1.368;2022-09-09T06:06:43;22.50;54.50
37870;DHT22;62531;53.326;-1.368;2022-09-09T06:10:45;22.50;54.50
37870;DHT22;62531;53.326;-1.368;2022-09-09T06:14:47;22.50;54.50
37870;DHT22;62531;53.326;-1.368;2022-09-09T06:18:48;22.50;54.50
37870;DHT22;62531;53.326;-1.368;2022-09-09T06:22:49;22.50;54.50
37870;DHT22;62531;53.326;-1.368;2022-09-09T06:26:50;22.50;54.50
37870;DHT22;62531;53.326;-1.368;2022-09-09T06:30:58;22.50;54.50
37870;DHT22;62531;53.326;-1.368;2022-09-09T06:35:00;22.50;54.50
37870;DHT22;62531;53.326;-1.368;2022-09-09T06:39:22;22.50;54.50
37870;DHT22;62531;53.326;-1.368;2022-09-09T06:43:23;22.50;54.50
37870;DHT22;62531;53.326;-1.368;2022-09-09T06:47:25;22.50;54.50
37870;DHT22;62531;53.326;-1.368;2022-09-09T06:51:29;22.40;54.50
37870;DHT22;62531;53.326;-1.368;2022-09-09T06:55:31;22.40;54.50
37870;DHT22;62531;53.326;-1.368;2022-09-09T06:59:33;22.30;54.60
37870;DHT22;62531;53.326;-1.368;2022-09-09T07:03:34;22.20;54.70
37870;DHT22;62531;53.326;-1.368;2022-09-09T07:07:36;22.10;54.90
37870;DHT22;62531;53.326;-1.368;2022-09-09T07:11:42;22.10;55.00
37870;DHT22;62531;53.326;-1.368;2022-09-09T07:15:43;22.00;55.00
37870;DHT22;62531;53.326;-1.368;2022-09-09T07:19:44;21.90;55.10
37870;DHT22;62531;53.326;-1.368;2022-09-09T07:23:45;21.80;55.30
37870;DHT22;62531;53.326;-1.368;2022-09-09T07:27:47;21.70;55.70
37870;DHT22;62531;53.326;-1.368;2022-09-09T07:31:48;21.70;55.60
37870;DHT22;62531;53.326;-1.368;2022-09-09T08:43:03;21.70;58.30
37870;DHT22;62531;53.326;-1.368;2022-09-09T08:47:19;21.70;58.20
37870;DHT22;62531;53.326;-1.368;2022-09-09T08:51:27;21.70;58.20
37870;DHT22;62531;53.326;-1.368;2022-09-09T08:55:49;21.70;58.00
37870;DHT22;62531;53.326;-1.368;2022-09-09T08:59:52;21.70;57.80
37870;DHT22;62531;53.326;-1.368;2022-09-09T09:08:12;21.80;57.70
37870;DHT22;62531;53.326;-1.368;2022-09-09T09:12:20;21.80;57.70
37870;DHT22;62531;53.326;-1.368;2022-09-09T09:25:38;21.70;57.40
37870;DHT22;62531;53.326;-1.368;2022-09-09T09:29:42;21.80;57.30
37870;DHT22;62531;53.326;-1.368;2022-09-09T09:33:48;21.80;57.60
37870;DHT22;62531;53.326;-1.368;2022-09-09T09:37:50;21.70;57.30
37870;DHT22;62531;53.326;-1.368;2022-09-09T09:41:52;21.80;57.20
37870;DHT22;62531;53.326;-1.368;2022-09-09T09:45:53;21.80;57.10
37870;DHT22;62531;53.326;-1.368;2022-09-09T09:49:59;21.80;56.90
37870;DHT22;62531;53.326;-1.368;2022-09-09T09:55:02;21.80;56.90
37870;DHT22;62531;53.326;-1.368;2022-09-09T10:02:48;21.80;56.80
37870;DHT22;62531;53.326;-1.368;2022-09-09T10:06:50;21.80;56.80
37870;DHT22;62531;53.326;-1.368;2022-09-09T10:19:36;21.80;56.80
37870;DHT22;62531;53.326;-1.368;2022-09-09T10:32:57;21.90;56.70
37870;DHT22;62531;53.326;-1.368;2022-09-09T10:37:05;21.90;56.80
37870;DHT22;62531;53.326;-1.368;2022-09-09T11:02:39;22.10;56.80
37870;DHT22;62531;53.326;-1.368;2022-09-09T11:06:48;22.20;56.20
37870;DHT22;62531;53.326;-1.368;2022-09-09T11:15:41;22.20;55.70
37870;DHT22;62531;53.326;-1.368;2022-09-09T11:19:46;22.30;55.50
37870;DHT22;62531;53.326;-1.368;2022-09-09T11:23:53;22.30;55.40
37870;DHT22;62531;53.326;-1.368;2022-09-09T11:41:19;22.40;55.00
37870;DHT22;62531;53.326;-1.368;2022-09-09T11:45:26;22.40;54.90
37870;DHT22;62531;53.326;-1.368;2022-09-09T11:49:43;22.50;54.90
37870;DHT22;62531;53.326;-1.368;2022-09-09T11:53:51;22.50;55.20
37870;DHT22;62531;53.326;-1.368;2022-09-09T11:58:00;22.50;54.60
37870;DHT22;62531;53.326;-1.368;2022-09-09T12:02:26;22.50;54.60
37870;DHT22;62531;53.326;-1.368;2022-09-09T12:06:31;22.50;54.50
37870;DHT22;62531;53.326;-1.368;2022-09-09T12:10:34;22.60;54.60
37870;DHT22;62531;53.326;-1.368;2022-09-09T12:14:43;22.60;54.60
37870;DHT22;62531;53.326;-1.368;2022-09-09T12:18:44;22.50;54.60
37870;DHT22;62531;53.326;-1.368;2022-09-09T12:27:30;22.60;55.00
37870;DHT22;62531;53.326;-1.368;2022-09-09T12:35:43;22.60;55.50
37870;DHT22;62531;53.326;-1.368;2022-09-09T12:39:56;22.60;55.60
37870;DHT22;62531;53.326;-1.368;2022-09-09T12:44:06;22.60;56.00
37870;DHT22;62531;53.326;-1.368;2022-09-09T12:48:09;22.60;56.10
37870;DHT22;62531;53.326;-1.368;2022-09-09T12:52:32;22.60;56.10
37870;DHT22;62531;53.326;-1.368;2022-09-09T12:56:35;22.60;56.40
37870;DHT22;62531;53.326;-1.368;2022-09-09T13:00:37;22.60;56.50
37870;DHT22;62531;53.326;-1.368;2022-09-09T13:04:38;22.70;56.20
37870;DHT22;62531;53.326;-1.368;2022-09-09T13:08:40;22.60;56.00
37870;DHT22;62531;53.326;-1.368;2022-09-09T13:12:42;22.60;56.40
37870;DHT22;62531;53.326;-1.368;2022-09-09T13:17:01;22.60;55.80
37870;DHT22;62531;53.326;-1.368;2022-09-09T13:21:04;22.60;55.80
37870;DHT22;62531;53.326;-1.368;2022-09-09T13:29:18;22.60;55.80
37870;DHT22;62531;53.326;-1.368;2022-09-09T13:33:23;22.50;56.00
37870;DHT22;62531;53.326;-1.368;2022-09-09T13:37:39;22.50;56.20
37870;DHT22;62531;53.326;-1.368;2022-09-09T13:41:44;22.40;56.60
37870;DHT22;62531;53.326;-1.368;2022-09-09T13:45:55;22.30;57.10
37870;DHT22;62531;53.326;-1.368;2022-09-09T13:49:57;22.30;57.40
37870;DHT22;62531;53.326;-1.368;2022-09-09T13:53:59;22.30;57.50
37870;DHT22;62531;53.326;-1.368;2022-09-09T13:58:03;22.40;57.60
37870;DHT22;62531;53.326;-1.368;2022-09-09T14:02:07;22.40;57.50
37870;DHT22;62531;53.326;-1.368;2022-09-09T14:06:09;22.40;57.50
37870;DHT22;62531;53.326;-1.368;2022-09-09T14:10:11;22.40;57.60
37870;DHT22;62531;53.326;-1.368;2022-09-09T14:14:13;22.50;57.30
37870;DHT22;62531;53.326;-1.368;2022-09-09T14:18:14;22.50;57.20
37870;DHT22;62531;53.326;-1.368;2022-09-09T14:22:15;22.50;57.00
37870;DHT22;62531;53.326;-1.368;2022-09-09T14:26:16;22.50;56.90
37870;DHT22;62531;53.326;-1.368;2022-09-09T14:30:19;22.50;56.70
37870;DHT22;62531;53.326;-1.368;2022-09-09T14:34:20;22.50;56.40
37870;DHT22;62531;53.326;-1.368;2022-09-09T14:38:22;22.60;56.40
37870;DHT22;62531;53.326;-1.368;2022-09-09T14:42:23;22.60;56.80
37870;DHT22;62531;53.326;-1.368;2022-09-09T14:46:25;22.60;56.30
37870;DHT22;62531;53.326;-1.368;2022-09-09T14:50:27;22.60;56.20
37870;DHT22;62531;53.326;-1.368;2022-09-09T14:54:32;22.60;56.20
37870;DHT22;62531;53.326;-1.368;2022-09-09T14:58:34;22.60;56.10
37870;DHT22;62531;53.326;-1.368;2022-09-09T15:02:35;22.60;56.30
37870;DHT22;62531;53.326;-1.368;2022-09-09T15:06:37;22.60;56.20
37870;DHT22;62531;53.326;-1.368;2022-09-09T15:10:39;22.60;56.10
37870;DHT22;62531;53.326;-1.368;2022-09-09T15:14:41;22.60;56.00
37870;DHT22;62531;53.326;-1.368;2022-09-09T15:18:43;22.60;56.00
37870;DHT22;62531;53.326;-1.368;2022-09-09T15:22:45;22.60;56.10
37870;DHT22;62531;53.326;-1.368;2022-09-09T15:26:46;22.60;56.20
37870;DHT22;62531;53.326;-1.368;2022-09-09T15:30:53;22.60;56.10
37870;DHT22;62531;53.326;-1.368;2022-09-09T15:34:55;22.60;56.10
37870;DHT22;62531;53.326;-1.368;2022-09-09T15:38:56;22.70;56.20
37870;DHT22;62531;53.326;-1.368;2022-09-09T15:42:58;22.70;56.10
37870;DHT22;62531;53.326;-1.368;2022-09-09T15:46:59;22.60;55.90
37870;DHT22;62531;53.326;-1.368;2022-09-09T15:51:04;22.60;56.00
37870;DHT22;62531;53.326;-1.368;2022-09-09T15:55:05;22.60;56.00
37870;DHT22;62531;53.326;-1.368;2022-09-09T15:59:07;22.70;56.00
37870;DHT22;62531;53.326;-1.368;2022-09-09T16:03:08;22.70;56.00
37870;DHT22;62531;53.326;-1.368;2022-09-09T16:07:09;22.70;56.00
37870;DHT22;62531;53.326;-1.368;2022-09-09T16:11:16;22.60;56.00
37870;DHT22;62531;53.326;-1.368;2022-09-09T16:15:17;22.60;56.30
37870;DHT22;62531;53.326;-1.368;2022-09-09T16:19:21;22.60;56.30
37870;DHT22;62531;53.326;-1.368;2022-09-09T16:23:39;22.60;56.30
37870;DHT22;62531;53.326;-1.368;2022-09-09T16:28:01;22.60;56.30
37870;DHT22;62531;53.326;-1.368;2022-09-09T16:32:02;22.60;56.40
37870;DHT22;62531;53.326;-1.368;2022-09-09T16:36:12;22.60;56.50
37870;DHT22;62531;53.326;-1.368;2022-09-09T16:40:14;22.60;56.50
37870;DHT22;62531;53.326;-1.368;2022-09-09T16:44:18;22.60;56.40
37870;DHT22;62531;53.326;-1.368;2022-09-09T16:48:20;22.60;56.20
37870;DHT22;62531;53.326;-1.368;2022-09-09T16:52:21;22.60;55.90
37870;DHT22;62531;53.326;-1.368;2022-09-09T16:56:25;22.50;55.60
37870;DHT22;62531;53.326;-1.368;2022-09-09T17:00:26;22.50;55.50
37870;DHT22;62531;53.326;-1.368;2022-09-09T17:04:28;22.50;55.50
37870;DHT22;62531;53.326;-1.368;2022-09-09T17:08:29;22.40;55.50
37870;DHT22;62531;53.326;-1.368;2022-09-09T17:12:31;22.40;55.50
37870;DHT22;62531;53.326;-1.368;2022-09-09T17:16:33;22.40;55.50
37870;DHT22;62531;53.326;-1.368;2022-09-09T17:20:36;22.30;55.00
37870;DHT22;62531;53.326;-1.368;2022-09-09T17:24:57;22.10;55.00
37870;DHT22;62531;53.326;-1.368;2022-09-09T17:28:59;22.00;55.50
37870;DHT22;62531;53.326;-1.368;2022-09-09T17:33:01;22.00;55.50
37870;DHT22;62531;53.326;-1.368;2022-09-09T17:37:02;21.90;55.40
37870;DHT22;62531;53.326;-1.368;2022-09-09T17:41:18;21.80;55.50
37870;DHT22;62531;53.326;-1.368;2022-09-09T17:45:20;21.70;55.50
37870;DHT22;62531;53.326;-1.368;2022-09-09T17:49:21;21.60;55.60
37870;DHT22;62531;53.326;-1.368;2022-09-09T17:53:22;21.60;55.50
37870;DHT22;62531;53.326;-1.368;2022-09-09T17:57:24;21.50;55.80
37870;DHT22;62531;53.326;-1.368;2022-09-09T18:01:28;21.40;55.90
37870;DHT22;62531;53.326;-1.368;2022-09-09T18:05:30;21.40;56.20
37870;DHT22;62531;53.326;-1.368;2022-09-09T18:09:31;21.30;56.40
37870;DHT22;62531;53.326;-1.368;2022-09-09T18:13:33;21.40;57.80
37870;DHT22;62531;53.326;-1.368;2022-09-09T18:17:34;21.40;58.40
37870;DHT22;62531;53.326;-1.368;2022-09-09T18:21:35;21.50;58.20
37870;DHT22;62531;53.326;-1.368;2022-09-09T18:25:40;21.50;58.10
37870;DHT22;62531;53.326;-1.368;2022-09-09T18:29:41;21.50;57.90
37870;DHT22;62531;53.326;-1.368;2022-09-09T18:33:44;21.50;57.90
37870;DHT22;62531;53.326;-1.368;2022-09-09T18:37:46;21.60;57.80
37870;DHT22;62531;53.326;-1.368;2022-09-09T18:41:49;21.60;57.80
37870;DHT22;62531;53.326;-1.368;2022-09-09T18:45:52;21.60;57.70
37870;DHT22;62531;53.326;-1.368;2022-09-09T18:49:53;21.70;57.70
37870;DHT22;62531;53.326;-1.368;2022-09-09T18:54:00;21.70;57.90
37870;DHT22;62531;53.326;-1.368;2022-09-09T18:58:01;21.70;58.30
37870;DHT22;62531;53.326;-1.368;2022-09-09T19:02:03;21.70;57.70
37870;DHT22;62531;53.326;-1.368;2022-09-09T19:06:11;21.80;57.70
37870;DHT22;62531;53.326;-1.368;2022-09-09T19:10:13;21.80;58.70
37870;DHT22;62531;53.326;-1.368;2022-09-09T19:14:16;21.80;58.90
37870;DHT22;62531;53.326;-1.368;2022-09-09T19:18:18;21.90;59.10
37870;DHT22;62531;53.326;-1.368;2022-09-09T19:22:19;22.00;59.00
37870;DHT22;62531;53.326;-1.368;2022-09-09T19:26:21;22.10;59.00
37870;DHT22;62531;53.326;-1.368;2022-09-09T19:30:22;22.20;58.90
37870;DHT22;62531;53.326;-1.368;2022-09-09T19:34:25;22.20;59.10
37870;DHT22;62531;53.326;-1.368;2022-09-09T19:38:26;22.30;59.70
37870;DHT22;62531;53.326;-1.368;2022-09-09T19:42:28;22.40;59.90
37870;DHT22;62531;53.326;-1.368;2022-09-09T19:46:35;22.50;60.30
37870;DHT22;62531;53.326;-1.368;2022-09-09T19:50:37;22.60;60.30
37870;DHT22;62531;53.326;-1.368;2022-09-09T19:54:38;22.60;60.30
37870;DHT22;62531;53.326;-1.368;2022-09-09T19:58:40;22.70;60.40
37870;DHT22;62531;53.326;-1.368;2022-09-09T20:02:41;22.70;60.40
37870;DHT22;62531;53.326;-1.368;2022-09-09T20:06:44;22.70;59.80
37870;DHT22;62531;53.326;-1.368;2022-09-09T20:10:50;22.90;59.60
37870;DHT22;62531;53.326;-1.368;2022-09-09T20:14:52;23.00;59.40
37870;DHT22;62531;53.326;-1.368;2022-09-09T20:18:57;23.00;59.20
37870;DHT22;62531;53.326;-1.368;2022-09-09T20:22:59;23.00;59.10
37870;DHT22;62531;53.326;-1.368;2022-09-09T20:27:00;23.00;59.20
37870;DHT22;62531;53.326;-1.368;2022-09-09T20:31:06;23.00;59.10
37870;DHT22;62531;53.326;-1.368;2022-09-09T20:35:08;23.00;59.00
37870;DHT22;62531;53.326;-1.368;2022-09-09T20:39:13;23.00;59.00
37870;DHT22;62531;53.326;-1.368;2022-09-09T20:43:18;23.00;58.50
37870;DHT22;62531;53.326;-1.368;2022-09-09T20:47:19;22.90;58.30
37870;DHT22;62531;53.326;-1.368;2022-09-09T20:51:20;22.90;58.20
37870;DHT22;62531;53.326;-1.368;2022-09-09T20:55:23;22.90;58.50
37870;DHT22;62531;53.326;-1.368;2022-09-09T20:59:27;23.00;58.60
37870;DHT22;62531;53.326;-1.368;2022-09-09T21:03:31;23.10;58.50
37870;DHT22;62531;53.326;-1.368;2022-09-09T21:07:33;23.10;58.30
37870;DHT22;62531;53.326;-1.368;2022-09-09T21:11:35;23.20;58.30
37870;DHT22;62531;53.326;-1.368;2022-09-09T21:15:36;23.20;57.80
37870;DHT22;62531;53.326;-1.368;2022-09-09T21:19:38;23.20;57.60
37870;DHT22;62531;53.326;-1.368;2022-09-09T21:23:40;23.20;57.40
37870;DHT22;62531;53.326;-1.368;2022-09-09T21:27:42;23.20;57.30
37870;DHT22;62531;53.326;-1.368;2022-09-09T21:31:44;23.20;57.20
37870;DHT22;62531;53.326;-1.368;2022-09-09T21:35:45;23.20;57.20
37870;DHT22;62531;53.326;-1.368;2022-09-09T21:39:47;23.20;57.70
37870;DHT22;62531;53.326;-1.368;2022-09-09T21:43:51;23.20;57.70
37870;DHT22;62531;53.326;-1.368;2022-09-09T21:47:54;23.20;57.80
37870;DHT22;62531;53.326;-1.368;2022-09-09T21:51:56;23.30;57.80
37870;DHT22;62531;53.326;-1.368;2022-09-09T21:56:04;23.30;57.70
37870;DHT22;62531;53.326;-1.368;2022-09-09T22:00:07;23.40;57.80
37870;DHT22;62531;53.326;-1.368;2022-09-09T22:04:12;23.30;57.70
37870;DHT22;62531;53.326;-1.368;2022-09-09T22:08:14;23.40;57.60
37870;DHT22;62531;53.326;-1.368;2022-09-09T22:12:17;23.50;57.60
37870;DHT22;62531;53.326;-1.368;2022-09-09T22:16:20;23.50;57.70
37870;DHT22;62531;53.326;-1.368;2022-09-09T22:20:22;23.50;57.60
37870;DHT22;62531;53.326;-1.368;2022-09-09T22:24:23;23.50;57.50
37870;DHT22;62531;53.326;-1.368;2022-09-09T22:28:28;23.60;57.50
37870;DHT22;62531;53.326;-1.368;2022-09-09T22:32:30;23.60;57.40
37870;DHT22;62531;53.326;-1.368;2022-09-09T22:36:31;23.60;57.40
37870;DHT22;62531;53.326;-1.368;2022-09-09T22:40:38;23.70;57.50
37870;DHT22;62531;53.326;-1.368;2022-09-09T22:44:41;23.70;57.50
37870;DHT22;62531;53.326;-1.368;2022-09-09T22:48:42;23.70;57.30
37870;DHT22;62531;53.326;-1.368;2022-09-09T22:52:46;23.70;57.20
37870;DHT22;62531;53.326;-1.368;2022-09-09T22:56:50;23.80;57.10
37870;DHT22;62531;53.326;-1.368;2022-09-09T23:00:52;23.80;57.10
37870;DHT22;62531;53.326;-1.368;2022-09-09T23:04:53;23.80;57.20
37870;DHT22;62531;53.326;-1.368;2022-09-09T23:08:59;23.80;57.10
37870;DHT22;62531;53.326;-1.368;2022-09-09T23:13:01;23.90;57.10
37870;DHT22;62531;53.326;-1.368;2022-09-09T23:17:03;23.90;57.00
37870;DHT22;62531;53.326;-1.368;2022-09-09T23:21:06;23.90;57.00
37870;DHT22;62531;53.326;-1.368;2022-09-09T23:25:09;23.90;56.80
37870;DHT22;62531;53.326;-1.368;2022-09-09T23:29:14;23.90;56.80
37870;DHT22;62531;53.326;-1.368;2022-09-09T23:33:16;23.90;56.50
37870;DHT22;62531;53.326;-1.368;2022-09-09T23:37:17;23.90;56.40
37870;DHT22;62531;53.326;-1.368;2022-09-09T23:41:19;23.90;56.30
37870;DHT22;62531;53.326;-1.368;2022-09-09T23:45:20;23.90;56.20
37870;DHT22;62531;53.326;-1.368;2022-09-09T23:49:22;23.80;56.10
37870;DHT22;62531;53.326;-1.368;2022-09-09T23:53:24;23.80;56.10
37870;DHT22;62531;53.326;-1.368;2022-09-09T23:57:27;23.80;56.10
